Terminal Aerodrome Forecast
Issued by NWS

Home | Current Version | Previous Version | Text Only | Print | Product List | Glossary On
Versions: 1 2 3 4 5 6 7 8 9 10 11 12 13 14 15 16 17 18 19 20 21 22
000
FTUS41 KCLE 051500 AAC
TAFFDY
TAF AMD
KFDY 051547Z 0516/0612 VRB03KT 6SM HZ SCT008 OVC045
     FM051600 VRB03KT P6SM SCT012 BKN080
     FM052300 07007KT P6SM SCT008 BKN120
     FM060400 07005KT 4SM BR SCT008 BKN200=

USA.gov is the U.S. government's official web portal to all federal, state and local government web resources and services.